Terminal Aerodrome Forecast
Issued by NWS

Current Version | Previous Version | Text Only | Print | Product List | Glossary On
Versions: 1 2 3 4 5 6 7 8 9 10 11 12 13 14 15 16 17 18
000
FTUS46 KMFR 020306 AAA
TAFOTH
TAF AMD
KOTH 020306Z 0203/0224 36010G18KT P6SM BKN020 BKN100
     FM020900 09006KT P6SM -RA BKN020 OVC035
     FM022100 35012KT P6SM SCT030=

USA.gov is the U.S. government's official web portal to all federal, state and local government web resources and services.